createdAt,value
2023-03-30T00:01:09.331Z,18.29
2023-03-30T00:04:10.447Z,18.21
2023-03-30T00:07:12.304Z,18.45
2023-03-30T00:10:13.283Z,18.31
2023-03-30T00:13:14.315Z,18.56
2023-03-30T00:16:51.336Z,18.22
2023-03-30T00:19:58.318Z,18.64
2023-03-30T00:22:59.272Z,17.78
2023-03-30T00:26:00.306Z,18.50
2023-03-30T00:29:01.331Z,18.11
2023-03-30T00:32:02.471Z,18.10
2023-03-30T00:35:03.296Z,18.03
2023-03-30T00:38:04.325Z,18.42
2023-03-30T00:41:05.477Z,18.63
2023-03-30T00:44:29.306Z,17.97
2023-03-30T00:47:30.331Z,18.10
2023-03-30T00:50:32.293Z,18.38
2023-03-30T00:53:39.302Z,18.51
2023-03-30T00:56:42.376Z,18.56
2023-03-30T00:59:43.270Z,18.55
2023-03-30T01:02:44.413Z,18.95
2023-03-30T01:05:45.310Z,18.60
2023-03-30T01:08:46.304Z,18.65
2023-03-30T01:11:47.258Z,18.70
2023-03-30T01:14:48.338Z,18.96
2023-03-30T01:17:56.328Z,18.52
2023-03-30T01:21:12.318Z,18.36
2023-03-30T01:24:31.246Z,18.38
2023-03-30T01:27:38.321Z,18.46
2023-03-30T01:30:58.337Z,18.33
2023-03-30T01:34:11.489Z,18.53
2023-03-30T01:37:35.254Z,18.36
2023-03-30T01:40:41.298Z,17.97
2023-03-30T01:43:51.342Z,18.81
2023-03-30T01:46:55.361Z,18.59
2023-03-30T01:49:59.267Z,18.47
2023-03-30T01:53:11.312Z,18.37
2023-03-30T01:56:17.248Z,18.74
2023-03-30T01:59:43.357Z,18.83
2023-03-30T02:02:44.382Z,18.67
2023-03-30T02:05:46.508Z,18.16
2023-03-30T02:08:48.251Z,17.96
2023-03-30T02:11:51.315Z,18.83
2023-03-30T02:14:54.296Z,18.63
2023-03-30T02:17:55.349Z,18.43
2023-03-30T02:20:56.291Z,18.65
2023-03-30T02:23:59.309Z,18.50
2023-03-30T02:27:01.262Z,18.23
2023-03-30T02:30:03.284Z,18.43
2023-03-30T02:33:06.287Z,18.61
2023-03-30T02:36:10.336Z,18.69
2023-03-30T02:39:24.257Z,18.63
2023-03-30T02:42:46.295Z,18.74
2023-03-30T02:45:48.285Z,18.51
2023-03-30T02:48:52.282Z,18.79
2023-03-30T02:51:53.258Z,18.71
2023-03-30T02:55:19.296Z,19.07
2023-03-30T02:58:53.264Z,18.77
2023-03-30T03:01:59.419Z,18.57
2023-03-30T03:05:01.298Z,18.63
2023-03-30T03:08:28.490Z,18.86
2023-03-30T03:11:29.281Z,18.73
2023-03-30T03:14:33.291Z,18.81
2023-03-30T03:17:41.298Z,18.63
2023-03-30T03:20:42.287Z,18.49
2023-03-30T03:23:43.289Z,18.57
2023-03-30T03:26:48.299Z,18.89
2023-03-30T03:29:50.259Z,18.86
2023-03-30T03:32:51.330Z,19.14
2023-03-30T03:35:54.349Z,18.84
2023-03-30T03:38:57.299Z,19.23
2023-03-30T03:41:58.265Z,18.98
2023-03-30T03:44:59.274Z,18.99
2023-03-30T03:48:00.290Z,18.62
2023-03-30T03:51:12.295Z,18.73
2023-03-30T03:54:14.247Z,18.77
2023-03-30T03:57:16.305Z,19.08
2023-03-30T04:00:22.291Z,19.15
2023-03-30T04:03:24.308Z,18.82
2023-03-30T04:06:25.252Z,18.72
2023-03-30T04:09:28.496Z,18.71
2023-03-30T04:12:42.249Z,18.90
2023-03-30T04:15:54.366Z,18.93
2023-03-30T04:19:04.233Z,18.69
2023-03-30T04:22:43.323Z,19.28
2023-03-30T04:26:08.230Z,18.82
2023-03-30T04:29:32.279Z,19.11
2023-03-30T04:32:51.275Z,18.53
2023-03-30T04:36:14.307Z,18.84
2023-03-30T04:39:44.226Z,18.62
2023-03-30T04:43:09.289Z,18.81
2023-03-30T04:46:33.226Z,18.75
2023-03-30T04:49:47.262Z,19.05
2023-03-30T04:53:06.240Z,18.57
2023-03-30T04:56:25.276Z,18.59
2023-03-30T04:59:51.218Z,18.60
2023-03-30T05:03:12.390Z,19.06
2023-03-30T05:06:23.244Z,18.70
2023-03-30T05:09:51.557Z,19.05
2023-03-30T05:13:11.244Z,19.15
2023-03-30T05:16:32.314Z,18.78
2023-03-30T05:20:02.240Z,18.81
2023-03-30T05:23:21.286Z,18.93
2023-03-30T05:26:51.228Z,18.84
2023-03-30T05:29:58.267Z,18.93
2023-03-30T05:33:16.239Z,18.48
2023-03-30T05:36:23.264Z,18.60
2023-03-30T05:39:41.232Z,18.30
2023-03-30T05:43:14.333Z,18.97
2023-03-30T05:46:33.501Z,18.91
2023-03-30T05:50:09.281Z,18.58
2023-03-30T05:53:28.247Z,18.90
2023-03-30T05:56:51.100Z,18.39
2023-03-30T06:00:08.273Z,18.61
2023-03-30T06:03:27.379Z,18.64
2023-03-30T06:06:28.224Z,18.50
2023-03-30T06:09:30.274Z,18.77
2023-03-30T06:12:38.232Z,18.71
2023-03-30T06:15:53.269Z,18.70
2023-03-30T06:18:54.266Z,18.59
2023-03-30T06:21:55.284Z,18.51
2023-03-30T06:25:14.278Z,18.37
2023-03-30T06:28:15.267Z,18.18
2023-03-30T06:31:20.257Z,19.07
2023-03-30T06:34:47.315Z,18.73
2023-03-30T06:37:51.206Z,18.73
2023-03-30T06:40:52.261Z,18.74
2023-03-30T06:43:55.209Z,18.85
2023-03-30T06:47:01.277Z,19.20
2023-03-30T06:50:02.238Z,19.07
2023-03-30T06:53:23.266Z,18.83
2023-03-30T06:56:24.227Z,18.69
2023-03-30T06:59:34.342Z,19.06
2023-03-30T07:02:58.271Z,19.37
2023-03-30T07:06:02.288Z,19.04
2023-03-30T07:09:05.210Z,18.99
2023-03-30T07:12:06.287Z,18.79
2023-03-30T07:15:07.226Z,18.59
2023-03-30T07:18:08.621Z,19.14
2023-03-30T07:21:11.208Z,18.81
2023-03-30T07:24:12.297Z,18.80
2023-03-30T07:27:13.213Z,19.01
2023-03-30T07:30:21.757Z,18.66
2023-03-30T07:33:29.280Z,18.63
2023-03-30T07:36:31.253Z,18.79
2023-03-30T07:39:34.117Z,18.65
2023-03-30T07:42:35.253Z,18.71
2023-03-30T07:45:36.231Z,18.65
2023-03-30T07:48:41.261Z,19.30
2023-03-30T07:51:42.256Z,18.87
2023-03-30T07:54:51.248Z,18.97
2023-03-30T07:58:04.252Z,19.15
2023-03-30T08:01:05.436Z,19.04
2023-03-30T08:04:26.163Z,18.54
2023-03-30T08:07:27.237Z,18.43
2023-03-30T08:10:35.239Z,19.04
2023-03-30T08:13:36.276Z,18.82
2023-03-30T08:16:37.348Z,18.97
2023-03-30T08:19:38.393Z,18.67
2023-03-30T08:22:39.341Z,18.67
2023-03-30T08:25:40.301Z,18.68
2023-03-30T08:28:41.328Z,18.71
2023-03-30T08:31:44.293Z,19.01
2023-03-30T08:34:45.199Z,18.52
2023-03-30T08:37:46.268Z,19.06
2023-03-30T08:40:47.202Z,18.67
2023-03-30T08:44:06.241Z,18.68
2023-03-30T08:47:07.271Z,18.77
2023-03-30T08:50:26.278Z,18.77
2023-03-30T08:53:27.194Z,19.01
2023-03-30T08:56:28.320Z,18.73
2023-03-30T08:59:31.213Z,18.80
2023-03-30T09:02:46.368Z,18.53
2023-03-30T09:05:49.219Z,18.50
2023-03-30T09:08:50.259Z,18.77
2023-03-30T09:11:51.302Z,18.74
2023-03-30T09:14:57.266Z,18.75
2023-03-30T09:18:03.300Z,18.91
2023-03-30T09:21:05.502Z,18.69
2023-03-30T09:24:07.238Z,19.09
2023-03-30T09:27:27.241Z,18.86
2023-03-30T09:30:33.205Z,18.74
2023-03-30T09:33:52.219Z,18.81
2023-03-30T09:37:01.189Z,18.89
2023-03-30T09:40:02.273Z,19.05
2023-03-30T09:43:18.230Z,18.92
2023-03-30T09:46:20.290Z,19.12
2023-03-30T09:49:28.268Z,19.11
2023-03-30T09:52:37.312Z,18.98
2023-03-30T09:55:40.201Z,18.87
2023-03-30T09:58:45.270Z,18.91
2023-03-30T10:01:49.258Z,18.92
2023-03-30T10:05:09.348Z,19.13
2023-03-30T10:08:11.215Z,19.22
2023-03-30T10:11:13.242Z,19.07
2023-03-30T10:14:14.207Z,18.82
2023-03-30T10:17:16.235Z,18.80
2023-03-30T10:20:43.192Z,19.20
2023-03-30T10:23:51.396Z,19.30
2023-03-30T10:26:52.405Z,18.88
2023-03-30T10:29:59.224Z,19.17
2023-03-30T10:33:00.388Z,18.95
2023-03-30T10:36:02.488Z,18.69
2023-03-30T10:39:03.188Z,18.93
2023-03-30T10:42:04.316Z,19.14
2023-03-30T10:45:07.227Z,18.82
2023-03-30T10:48:08.288Z,19.12
2023-03-30T10:51:13.241Z,18.90
2023-03-30T10:54:14.478Z,18.83
2023-03-30T10:57:20.261Z,18.95
2023-03-30T11:00:21.294Z,18.97
2023-03-30T11:03:34.314Z,18.93
2023-03-30T11:06:38.228Z,18.68
2023-03-30T11:09:51.234Z,19.02
2023-03-30T11:12:55.256Z,18.84
2023-03-30T11:16:01.214Z,18.84
2023-03-30T11:19:02.262Z,19.18
2023-03-30T11:22:09.187Z,19.07
2023-03-30T11:25:10.595Z,19.21
2023-03-30T11:28:15.192Z,19.20
2023-03-30T11:31:28.274Z,18.94
2023-03-30T11:34:29.266Z,19.04
2023-03-30T11:37:36.206Z,19.16
2023-03-30T11:40:41.174Z,19.02
2023-03-30T11:43:43.240Z,19.18
2023-03-30T11:46:52.327Z,18.54
2023-03-30T11:50:07.239Z,18.47
2023-03-30T11:53:15.232Z,18.65
2023-03-30T11:56:16.214Z,18.83
2023-03-30T11:59:20.185Z,18.88
2023-03-30T12:02:30.297Z,19.12
2023-03-30T12:05:35.174Z,19.06
2023-03-30T12:08:39.212Z,19.03
2023-03-30T12:11:59.191Z,18.95
2023-03-30T12:15:00.222Z,18.79
2023-03-30T12:18:05.207Z,18.88
2023-03-30T12:21:08.571Z,19.07
2023-03-30T12:24:09.201Z,18.14
2023-03-30T12:27:11.754Z,18.81
2023-03-30T12:30:25.205Z,18.86
2023-03-30T12:33:27.223Z,18.48
2023-03-30T12:36:41.192Z,18.90
2023-03-30T12:39:51.235Z,18.62
2023-03-30T12:43:01.238Z,18.83
2023-03-30T12:46:10.897Z,18.94
2023-03-30T12:49:43.192Z,18.85
2023-03-30T12:52:54.227Z,18.93
2023-03-30T12:56:00.192Z,18.96
2023-03-30T12:59:19.233Z,18.81
2023-03-30T13:02:23.188Z,18.95
2023-03-30T13:05:31.234Z,18.90
2023-03-30T13:08:52.232Z,19.16
2023-03-30T13:11:57.299Z,19.17
2023-03-30T13:14:59.190Z,18.93
2023-03-30T13:18:03.240Z,19.03
2023-03-30T13:21:10.165Z,19.19
2023-03-30T13:24:17.204Z,18.89
2023-03-30T13:27:34.140Z,19.19
2023-03-30T13:30:36.479Z,18.81
2023-03-30T13:33:38.170Z,19.23
2023-03-30T13:36:43.229Z,19.08
2023-03-30T13:39:59.198Z,18.94
2023-03-30T13:43:38.213Z,18.98
2023-03-30T13:46:41.217Z,19.13
2023-03-30T13:49:57.225Z,19.48
2023-03-30T13:53:00.152Z,19.35
2023-03-30T13:56:02.387Z,19.30
2023-03-30T13:59:13.202Z,19.58
2023-03-30T14:02:14.220Z,19.37
2023-03-30T14:05:31.125Z,19.56
2023-03-30T14:08:32.242Z,19.47
2023-03-30T14:11:36.160Z,19.23
2023-03-30T14:14:40.193Z,19.20
2023-03-30T14:17:41.192Z,19.21
2023-03-30T14:21:00.227Z,19.06
2023-03-30T14:24:03.478Z,19.15
2023-03-30T14:26:57.211Z,19.37
2023-03-30T14:30:02.207Z,19.46
2023-03-30T14:33:18.439Z,19.13
2023-03-30T14:36:19.308Z,18.95
2023-03-30T14:39:23.195Z,19.45
2023-03-30T14:42:29.147Z,19.61
2023-03-30T14:45:31.314Z,19.35
2023-03-30T14:48:37.158Z,19.24
2023-03-30T14:51:40.274Z,18.97
2023-03-30T14:54:48.668Z,19.42
2023-03-30T14:57:55.210Z,19.17
2023-03-30T15:00:57.201Z,19.08
2023-03-30T15:03:58.272Z,19.06
2023-03-30T15:06:59.180Z,19.07
2023-03-30T15:10:00.292Z,19.35
2023-03-30T15:13:01.242Z,19.43
2023-03-30T15:16:02.209Z,19.18
2023-03-30T15:19:04.162Z,18.96
2023-03-30T15:22:07.206Z,19.44
2023-03-30T15:25:02.232Z,19.26
2023-03-30T15:28:03.190Z,19.04
2023-03-30T15:31:07.342Z,19.03
2023-03-30T15:34:09.501Z,18.95
2023-03-30T15:37:10.142Z,18.94
2023-03-30T15:40:11.173Z,18.94
2023-03-30T15:43:32.128Z,19.06
2023-03-30T15:46:34.237Z,19.04
2023-03-30T15:49:36.153Z,19.08
2023-03-30T15:52:39.214Z,18.96
2023-03-30T15:55:42.187Z,18.65
2023-03-30T15:58:43.187Z,18.79
2023-03-30T16:01:58.209Z,18.72
2023-03-30T16:04:59.255Z,18.48
2023-03-30T16:08:00.143Z,18.52
2023-03-30T16:11:01.177Z,18.39
2023-03-30T16:14:02.147Z,18.94
2023-03-30T16:17:03.163Z,18.72
2023-03-30T16:20:05.994Z,18.64
2023-03-30T16:23:07.208Z,18.68
2023-03-30T16:26:01.235Z,18.66
2023-03-30T16:28:58.213Z,18.66
2023-03-30T16:31:59.216Z,18.83
2023-03-30T16:35:01.495Z,18.93
2023-03-30T16:38:02.168Z,18.78
2023-03-30T16:41:08.181Z,18.74
2023-03-30T16:44:09.288Z,18.58
2023-03-30T16:47:10.184Z,18.89
2023-03-30T16:50:11.158Z,18.42
2023-03-30T16:53:12.481Z,18.59
2023-03-30T16:56:13.128Z,18.80
2023-03-30T16:59:14.192Z,18.75
2023-03-30T17:02:18.881Z,18.81
2023-03-30T17:05:20.225Z,18.76
2023-03-30T17:08:25.207Z,18.77
2023-03-30T17:11:26.190Z,19.02
2023-03-30T17:14:27.119Z,18.93
2023-03-30T17:17:28.210Z,18.95
2023-03-30T17:20:49.168Z,18.93
2023-03-30T17:23:51.213Z,18.89
2023-03-30T17:26:45.544Z,19.05
2023-03-30T17:29:39.199Z,18.65
2023-03-30T17:32:40.170Z,18.79
2023-03-30T17:35:41.333Z,18.69
2023-03-30T17:38:43.850Z,18.95
2023-03-30T17:41:45.161Z,19.01
2023-03-30T17:44:46.125Z,18.85
2023-03-30T17:47:48.238Z,18.86
2023-03-30T17:50:53.197Z,19.07
2023-03-30T17:53:54.138Z,18.68
2023-03-30T17:56:55.123Z,18.97
2023-03-30T17:59:56.166Z,19.00
2023-03-30T18:02:59.236Z,18.76
2023-03-30T18:06:00.200Z,18.82
2023-03-30T18:09:01.167Z,18.84
2023-03-30T18:12:02.191Z,19.09
2023-03-30T18:15:03.134Z,19.01
2023-03-30T18:18:04.252Z,18.67
2023-03-30T18:21:06.408Z,18.91
2023-03-30T18:24:07.177Z,19.05
2023-03-30T18:27:08.228Z,19.06
2023-03-30T18:30:35.447Z,18.89
2023-03-30T18:33:36.260Z,19.08
2023-03-30T18:36:37.295Z,19.03
2023-03-30T18:39:38.133Z,18.88
2023-03-30T18:42:39.209Z,18.98
2023-03-30T18:45:51.173Z,18.91
2023-03-30T18:48:52.162Z,18.91
2023-03-30T18:51:53.112Z,18.88
2023-03-30T18:54:54.165Z,19.01
2023-03-30T18:57:55.121Z,19.00
2023-03-30T19:00:56.314Z,19.01
2023-03-30T19:03:57.107Z,19.16
2023-03-30T19:06:59.170Z,19.38
2023-03-30T19:10:00.211Z,18.88
2023-03-30T19:13:01.133Z,19.21
2023-03-30T19:16:02.212Z,18.83
2023-03-30T19:19:03.156Z,18.97
2023-03-30T19:22:05.113Z,18.91
2023-03-30T19:25:06.176Z,19.25
2023-03-30T19:28:03.896Z,18.52
2023-03-30T19:30:58.206Z,18.91
2023-03-30T19:33:59.131Z,18.87
2023-03-30T19:37:00.212Z,19.09
2023-03-30T19:40:01.114Z,19.03
2023-03-30T19:43:02.137Z,19.10
2023-03-30T19:46:06.184Z,19.00
2023-03-30T19:49:07.158Z,18.68
2023-03-30T19:52:08.118Z,18.78
2023-03-30T19:55:09.155Z,18.83
2023-03-30T19:58:10.188Z,19.03
2023-03-30T20:01:11.166Z,19.03
2023-03-30T20:04:12.106Z,19.17
2023-03-30T20:07:15.178Z,19.23
2023-03-30T20:10:16.141Z,19.04
2023-03-30T20:13:28.142Z,19.02
2023-03-30T20:16:29.143Z,19.14
2023-03-30T20:19:30.148Z,19.53
2023-03-30T20:22:31.174Z,19.03
2023-03-30T20:25:32.167Z,19.40
2023-03-30T20:28:33.117Z,18.94
2023-03-30T20:31:34.204Z,19.11
2023-03-30T20:34:37.113Z,19.17
2023-03-30T20:37:38.290Z,19.33
2023-03-30T20:40:39.429Z,19.46
2023-03-30T20:43:49.712Z,19.10
2023-03-30T20:47:04.105Z,19.38
2023-03-30T20:50:05.143Z,19.31
2023-03-30T20:53:06.101Z,19.25
2023-03-30T20:56:07.158Z,19.30
2023-03-30T20:59:09.110Z,19.21
2023-03-30T21:02:11.139Z,19.50
2023-03-30T21:05:12.100Z,19.61
2023-03-30T21:08:14.170Z,19.48
2023-03-30T21:11:15.218Z,19.76
2023-03-30T21:14:17.096Z,19.37
2023-03-30T21:17:20.122Z,19.76
2023-03-30T21:20:21.178Z,19.59
2023-03-30T21:23:23.097Z,19.54
2023-03-30T21:26:26.169Z,19.78
2023-03-30T21:29:20.278Z,19.48
2023-03-30T21:32:15.281Z,19.48
2023-03-30T21:35:17.311Z,19.33
2023-03-30T21:38:26.621Z,19.60
2023-03-30T21:41:28.085Z,19.92
2023-03-30T21:44:29.155Z,19.65
2023-03-30T21:47:30.750Z,19.93
2023-03-30T22:04:05.993Z,19.76
2023-03-30T22:07:07.080Z,19.39
2023-03-30T22:10:08.174Z,19.62
2023-03-30T22:13:09.099Z,19.69
2023-03-30T22:19:39.100Z,19.59
2023-03-30T22:22:40.139Z,19.57
2023-03-30T22:25:43.138Z,19.77
2023-03-30T22:28:44.131Z,19.70
2023-03-30T22:31:38.313Z,19.59
2023-03-30T22:34:32.117Z,19.81
2023-03-30T22:37:33.089Z,19.65
2023-03-30T22:40:34.318Z,19.79
2023-03-30T22:43:35.183Z,19.77
2023-03-30T22:46:37.495Z,19.68
2023-03-30T22:49:38.554Z,19.81
2023-03-30T22:52:39.115Z,19.62
2023-03-30T22:55:40.392Z,19.73
2023-03-30T22:58:41.459Z,19.62
2023-03-30T23:01:43.154Z,19.80
2023-03-30T23:04:44.205Z,19.81
2023-03-30T23:07:45.253Z,19.81
2023-03-30T23:10:46.300Z,19.68
2023-03-30T23:13:49.314Z,19.55
2023-03-30T23:16:50.524Z,19.86
2023-03-30T23:19:52.047Z,19.89
2023-03-30T23:22:53.106Z,19.57
2023-03-30T23:25:57.060Z,19.82
2023-03-30T23:28:58.093Z,19.96
2023-03-30T23:31:59.063Z,19.62
2023-03-30T23:35:00.144Z,19.74
2023-03-30T23:38:01.056Z,19.79
2023-03-30T23:41:02.307Z,19.70
2023-03-30T23:44:03.057Z,19.89
2023-03-30T23:47:04.125Z,19.61
2023-03-30T23:50:05.052Z,19.75
2023-03-30T23:53:06.100Z,19.62
2023-03-30T23:56:07.362Z,19.77
2023-03-30T23:59:08.121Z,20.02
